sensor_id;sensor_type;location;lat;lon;timestamp;temperature;humidity
5631;DHT22;2837;50.990;7.124;2022-07-06T05:01:35;17.20;99.90
5631;DHT22;2837;50.990;7.124;2022-07-06T05:04:01;17.30;99.90
5631;DHT22;2837;50.990;7.124;2022-07-06T05:06:26;17.30;99.90
5631;DHT22;2837;50.990;7.124;2022-07-06T05:08:52;17.30;99.90
5631;DHT22;2837;50.990;7.124;2022-07-06T05:11:17;17.40;99.90
5631;DHT22;2837;50.990;7.124;2022-07-06T05:13:43;17.40;99.90
5631;DHT22;2837;50.990;7.124;2022-07-06T05:16:09;17.40;99.90
5631;DHT22;2837;50.990;7.124;2022-07-06T05:18:34;17.50;99.90
5631;DHT22;2837;50.990;7.124;2022-07-06T05:21:00;17.50;99.90
5631;DHT22;2837;50.990;7.124;2022-07-06T05:23:26;17.60;99.90
5631;DHT22;2837;50.990;7.124;2022-07-06T05:25:52;17.60;99.90
5631;DHT22;2837;50.990;7.124;2022-07-06T05:28:17;17.70;99.90
5631;DHT22;2837;50.990;7.124;2022-07-06T05:30:43;17.70;99.90
5631;DHT22;2837;50.990;7.124;2022-07-06T05:33:09;17.80;99.90
5631;DHT22;2837;50.990;7.124;2022-07-06T05:35:34;17.80;99.90
5631;DHT22;2837;50.990;7.124;2022-07-06T05:38:00;17.80;99.90
5631;DHT22;2837;50.990;7.124;2022-07-06T05:40:25;17.80;99.90
5631;DHT22;2837;50.990;7.124;2022-07-06T05:42:51;17.80;99.90
5631;DHT22;2837;50.990;7.124;2022-07-06T05:45:17;17.80;99.90
5631;DHT22;2837;50.990;7.124;2022-07-06T05:47:42;17.80;99.90
5631;DHT22;2837;50.990;7.124;2022-07-06T05:50:26;17.80;99.90
5631;DHT22;2837;50.990;7.124;2022-07-06T05:53:00;17.70;99.90
5631;DHT22;2837;50.990;7.124;2022-07-06T05:55:27;17.80;99.90
5631;DHT22;2837;50.990;7.124;2022-07-06T05:57:53;17.80;99.90
5631;DHT22;2837;50.990;7.124;2022-07-06T06:00:23;17.80;99.90
5631;DHT22;2837;50.990;7.124;2022-07-06T06:02:50;17.90;99.90
5631;DHT22;2837;50.990;7.124;2022-07-06T06:05:16;18.00;99.90
5631;DHT22;2837;50.990;7.124;2022-07-06T06:07:42;18.10;99.90
5631;DHT22;2837;50.990;7.124;2022-07-06T06:10:10;18.00;99.90
5631;DHT22;2837;50.990;7.124;2022-07-06T06:12:37;18.00;99.90
5631;DHT22;2837;50.990;7.124;2022-07-06T06:15:03;18.10;99.90
5631;DHT22;2837;50.990;7.124;2022-07-06T06:17:30;18.00;99.90
5631;DHT22;2837;50.990;7.124;2022-07-06T06:19:56;18.10;99.90
5631;DHT22;2837;50.990;7.124;2022-07-06T06:22:21;18.00;99.90
5631;DHT22;2837;50.990;7.124;2022-07-06T06:24:47;18.00;99.90
5631;DHT22;2837;50.990;7.124;2022-07-06T06:27:13;18.00;99.90
5631;DHT22;2837;50.990;7.124;2022-07-06T06:29:38;18.10;99.90
5631;DHT22;2837;50.990;7.124;2022-07-06T06:32:04;18.10;99.90
5631;DHT22;2837;50.990;7.124;2022-07-06T06:34:31;18.10;99.90
5631;DHT22;2837;50.990;7.124;2022-07-06T06:36:57;18.00;99.90
5631;DHT22;2837;50.990;7.124;2022-07-06T06:39:22;18.10;99.90
5631;DHT22;2837;50.990;7.124;2022-07-06T06:41:48;18.10;99.90
5631;DHT22;2837;50.990;7.124;2022-07-06T06:44:13;18.10;99.90
5631;DHT22;2837;50.990;7.124;2022-07-06T06:46:40;18.10;99.90
5631;DHT22;2837;50.990;7.124;2022-07-06T06:49:06;18.10;99.90
5631;DHT22;2837;50.990;7.124;2022-07-06T06:51:32;18.10;99.90
5631;DHT22;2837;50.990;7.124;2022-07-06T06:53:58;18.10;99.90
5631;DHT22;2837;50.990;7.124;2022-07-06T06:56:24;18.10;99.90
5631;DHT22;2837;50.990;7.124;2022-07-06T06:58:49;18.10;99.90
5631;DHT22;2837;50.990;7.124;2022-07-06T07:01:15;18.10;99.90
5631;DHT22;2837;50.990;7.124;2022-07-06T07:03:40;18.20;99.90
5631;DHT22;2837;50.990;7.124;2022-07-06T07:06:06;18.20;99.90
5631;DHT22;2837;50.990;7.124;2022-07-06T07:08:32;18.30;99.90
5631;DHT22;2837;50.990;7.124;2022-07-06T07:10:57;18.30;99.90
5631;DHT22;2837;50.990;7.124;2022-07-06T07:13:23;18.30;99.90
5631;DHT22;2837;50.990;7.124;2022-07-06T07:15:49;18.30;99.90
5631;DHT22;2837;50.990;7.124;2022-07-06T07:18:14;18.40;99.90
5631;DHT22;2837;50.990;7.124;2022-07-06T07:20:40;18.50;99.90
5631;DHT22;2837;50.990;7.124;2022-07-06T07:23:05;18.50;99.90
5631;DHT22;2837;50.990;7.124;2022-07-06T07:25:31;18.50;99.90
5631;DHT22;2837;50.990;7.124;2022-07-06T07:27:57;18.50;99.90
5631;DHT22;2837;50.990;7.124;2022-07-06T07:30:22;18.40;99.90
5631;DHT22;2837;50.990;7.124;2022-07-06T07:32:48;18.40;99.90
5631;DHT22;2837;50.990;7.124;2022-07-06T07:35:14;18.50;99.90
5631;DHT22;2837;50.990;7.124;2022-07-06T07:37:40;18.40;99.90
5631;DHT22;2837;50.990;7.124;2022-07-06T07:40:06;18.40;99.90
5631;DHT22;2837;50.990;7.124;2022-07-06T07:42:32;18.40;99.90
5631;DHT22;2837;50.990;7.124;2022-07-06T07:44:58;18.40;99.90
5631;DHT22;2837;50.990;7.124;2022-07-06T07:47:23;18.40;99.90
5631;DHT22;2837;50.990;7.124;2022-07-06T07:49:49;18.40;99.90
5631;DHT22;2837;50.990;7.124;2022-07-06T07:52:15;18.40;99.90
5631;DHT22;2837;50.990;7.124;2022-07-06T07:54:40;18.40;99.90
5631;DHT22;2837;50.990;7.124;2022-07-06T07:57:06;18.40;99.90
5631;DHT22;2837;50.990;7.124;2022-07-06T07:59:32;18.30;99.90
5631;DHT22;2837;50.990;7.124;2022-07-06T08:01:57;18.40;99.90
5631;DHT22;2837;50.990;7.124;2022-07-06T08:04:23;18.40;99.90
5631;DHT22;2837;50.990;7.124;2022-07-06T08:06:48;18.40;99.90
5631;DHT22;2837;50.990;7.124;2022-07-06T08:09:14;18.50;99.90
5631;DHT22;2837;50.990;7.124;2022-07-06T08:11:41;18.50;99.90
5631;DHT22;2837;50.990;7.124;2022-07-06T08:14:06;18.50;99.90
5631;DHT22;2837;50.990;7.124;2022-07-06T08:16:32;18.60;99.90
5631;DHT22;2837;50.990;7.124;2022-07-06T08:18:57;18.60;99.90
5631;DHT22;2837;50.990;7.124;2022-07-06T08:21:23;18.60;99.90
5631;DHT22;2837;50.990;7.124;2022-07-06T08:23:49;18.60;99.90
5631;DHT22;2837;50.990;7.124;2022-07-06T08:26:15;18.60;99.90
5631;DHT22;2837;50.990;7.124;2022-07-06T08:28:41;18.60;99.90
5631;DHT22;2837;50.990;7.124;2022-07-06T08:31:06;18.70;99.90
5631;DHT22;2837;50.990;7.124;2022-07-06T08:33:32;18.70;99.90
5631;DHT22;2837;50.990;7.124;2022-07-06T08:35:57;18.80;99.90
5631;DHT22;2837;50.990;7.124;2022-07-06T08:38:23;18.80;99.90
5631;DHT22;2837;50.990;7.124;2022-07-06T08:40:50;18.80;99.90
5631;DHT22;2837;50.990;7.124;2022-07-06T08:43:17;18.80;99.90
5631;DHT22;2837;50.990;7.124;2022-07-06T08:45:43;18.80;99.90
5631;DHT22;2837;50.990;7.124;2022-07-06T08:48:11;18.90;99.90
5631;DHT22;2837;50.990;7.124;2022-07-06T08:50:37;18.90;99.90
5631;DHT22;2837;50.990;7.124;2022-07-06T08:53:04;18.90;99.90
5631;DHT22;2837;50.990;7.124;2022-07-06T08:55:30;18.90;99.90
5631;DHT22;2837;50.990;7.124;2022-07-06T08:57:56;18.90;99.90
5631;DHT22;2837;50.990;7.124;2022-07-06T09:00:24;19.00;99.90
5631;DHT22;2837;50.990;7.124;2022-07-06T09:02:52;19.00;99.90
5631;DHT22;2837;50.990;7.124;2022-07-06T09:05:22;19.00;99.90
5631;DHT22;2837;50.990;7.124;2022-07-06T09:07:52;19.10;99.90
5631;DHT22;2837;50.990;7.124;2022-07-06T09:10:20;19.10;99.90
5631;DHT22;2837;50.990;7.124;2022-07-06T09:12:46;19.10;99.90
5631;DHT22;2837;50.990;7.124;2022-07-06T09:15:12;19.10;99.90
5631;DHT22;2837;50.990;7.124;2022-07-06T09:17:39;19.10;99.90
5631;DHT22;2837;50.990;7.124;2022-07-06T09:20:11;19.10;99.90
5631;DHT22;2837;50.990;7.124;2022-07-06T09:22:37;19.10;99.90
5631;DHT22;2837;50.990;7.124;2022-07-06T09:25:11;19.10;99.90
5631;DHT22;2837;50.990;7.124;2022-07-06T09:27:46;19.10;99.90
5631;DHT22;2837;50.990;7.124;2022-07-06T09:30:14;19.10;99.90
5631;DHT22;2837;50.990;7.124;2022-07-06T09:32:46;19.00;99.90
5631;DHT22;2837;50.990;7.124;2022-07-06T09:35:26;19.10;99.90
5631;DHT22;2837;50.990;7.124;2022-07-06T09:38:11;19.00;99.90
5631;DHT22;2837;50.990;7.124;2022-07-06T09:40:38;19.00;97.10
5631;DHT22;2837;50.990;7.124;2022-07-06T09:45:38;19.00;99.90
5631;DHT22;2837;50.990;7.124;2022-07-06T09:50:42;19.10;99.90
5631;DHT22;2837;50.990;7.124;2022-07-06T09:53:09;19.20;99.90
5631;DHT22;2837;50.990;7.124;2022-07-06T09:55:35;19.20;99.90
5631;DHT22;2837;50.990;7.124;2022-07-06T09:58:01;19.20;99.90
5631;DHT22;2837;50.990;7.124;2022-07-06T10:00:27;19.30;99.90
5631;DHT22;2837;50.990;7.124;2022-07-06T10:02:54;19.30;99.90
5631;DHT22;2837;50.990;7.124;2022-07-06T10:05:21;19.30;99.90
5631;DHT22;2837;50.990;7.124;2022-07-06T10:07:54;19.30;99.90
5631;DHT22;2837;50.990;7.124;2022-07-06T10:10:21;19.30;99.90
5631;DHT22;2837;50.990;7.124;2022-07-06T10:12:49;19.40;99.90
5631;DHT22;2837;50.990;7.124;2022-07-06T10:15:16;19.40;99.90
5631;DHT22;2837;50.990;7.124;2022-07-06T10:17:44;19.40;99.40
5631;DHT22;2837;50.990;7.124;2022-07-06T10:20:11;19.50;92.10
5631;DHT22;2837;50.990;7.124;2022-07-06T10:22:39;19.40;98.50
5631;DHT22;2837;50.990;7.124;2022-07-06T10:25:05;19.50;99.90
5631;DHT22;2837;50.990;7.124;2022-07-06T10:27:32;19.50;99.90
5631;DHT22;2837;50.990;7.124;2022-07-06T10:29:58;19.60;99.90
5631;DHT22;2837;50.990;7.124;2022-07-06T10:32:24;19.60;99.90
5631;DHT22;2837;50.990;7.124;2022-07-06T10:34:50;19.60;99.90
5631;DHT22;2837;50.990;7.124;2022-07-06T10:37:26;19.60;99.90
5631;DHT22;2837;50.990;7.124;2022-07-06T10:39:52;19.50;96.80
5631;DHT22;2837;50.990;7.124;2022-07-06T10:42:45;19.50;99.90
5631;DHT22;2837;50.990;7.124;2022-07-06T10:45:19;19.50;99.90
5631;DHT22;2837;50.990;7.124;2022-07-06T10:47:46;19.50;99.90
5631;DHT22;2837;50.990;7.124;2022-07-06T10:50:11;19.50;99.90
5631;DHT22;2837;50.990;7.124;2022-07-06T10:52:57;19.50;99.90
5631;DHT22;2837;50.990;7.124;2022-07-06T10:55:32;19.50;99.90
5631;DHT22;2837;50.990;7.124;2022-07-06T10:57:58;19.50;99.90
5631;DHT22;2837;50.990;7.124;2022-07-06T11:00:23;19.50;99.90
5631;DHT22;2837;50.990;7.124;2022-07-06T11:02:49;19.50;99.90
5631;DHT22;2837;50.990;7.124;2022-07-06T11:05:40;19.40;99.90
5631;DHT22;2837;50.990;7.124;2022-07-06T11:08:09;19.40;98.40
5631;DHT22;2837;50.990;7.124;2022-07-06T11:10:47;19.40;99.90
5631;DHT22;2837;50.990;7.124;2022-07-06T11:13:29;19.40;99.90
5631;DHT22;2837;50.990;7.124;2022-07-06T11:16:01;19.40;99.90
5631;DHT22;2837;50.990;7.124;2022-07-06T11:18:28;19.40;99.90
5631;DHT22;2837;50.990;7.124;2022-07-06T11:21:22;19.40;99.90
5631;DHT22;2837;50.990;7.124;2022-07-06T11:23:49;19.40;95.50
5631;DHT22;2837;50.990;7.124;2022-07-06T11:26:17;19.40;91.40
5631;DHT22;2837;50.990;7.124;2022-07-06T11:28:45;19.40;94.00
5631;DHT22;2837;50.990;7.124;2022-07-06T11:31:11;19.40;99.90
5631;DHT22;2837;50.990;7.124;2022-07-06T11:33:37;19.40;99.90
5631;DHT22;2837;50.990;7.124;2022-07-06T11:36:16;19.50;99.90
5631;DHT22;2837;50.990;7.124;2022-07-06T11:38:43;19.50;99.90
5631;DHT22;2837;50.990;7.124;2022-07-06T11:41:09;19.60;99.90
5631;DHT22;2837;50.990;7.124;2022-07-06T11:43:35;19.60;99.90
5631;DHT22;2837;50.990;7.124;2022-07-06T11:46:00;19.70;99.90
5631;DHT22;2837;50.990;7.124;2022-07-06T11:48:26;19.70;99.90
5631;DHT22;2837;50.990;7.124;2022-07-06T11:51:02;19.70;99.90
5631;DHT22;2837;50.990;7.124;2022-07-06T11:53:28;19.70;99.90
5631;DHT22;2837;50.990;7.124;2022-07-06T11:55:53;19.80;99.90
5631;DHT22;2837;50.990;7.124;2022-07-06T11:58:23;19.80;99.90
5631;DHT22;2837;50.990;7.124;2022-07-06T12:01:05;19.80;99.90
5631;DHT22;2837;50.990;7.124;2022-07-06T12:03:31;19.80;97.40
5631;DHT22;2837;50.990;7.124;2022-07-06T12:06:12;19.80;94.90
5631;DHT22;2837;50.990;7.124;2022-07-06T12:08:49;19.80;99.40
5631;DHT22;2837;50.990;7.124;2022-07-06T12:11:27;19.90;99.90
5631;DHT22;2837;50.990;7.124;2022-07-06T12:13:56;19.90;99.90
5631;DHT22;2837;50.990;7.124;2022-07-06T12:16:31;19.90;85.30
5631;DHT22;2837;50.990;7.124;2022-07-06T12:19:00;19.90;85.80
5631;DHT22;2837;50.990;7.124;2022-07-06T12:21:26;19.90;90.60
5631;DHT22;2837;50.990;7.124;2022-07-06T12:23:53;19.90;81.90
5631;DHT22;2837;50.990;7.124;2022-07-06T12:26:21;20.00;82.40
5631;DHT22;2837;50.990;7.124;2022-07-06T12:29:11;19.90;89.00
5631;DHT22;2837;50.990;7.124;2022-07-06T12:31:55;19.90;83.90
5631;DHT22;2837;50.990;7.124;2022-07-06T12:34:26;19.90;76.30
5631;DHT22;2837;50.990;7.124;2022-07-06T12:36:57;19.90;79.70
5631;DHT22;2837;50.990;7.124;2022-07-06T12:39:25;20.00;73.60
5631;DHT22;2837;50.990;7.124;2022-07-06T12:42:13;20.00;72.50
5631;DHT22;2837;50.990;7.124;2022-07-06T12:44:44;20.00;78.40
5631;DHT22;2837;50.990;7.124;2022-07-06T12:47:10;20.00;84.50
5631;DHT22;2837;50.990;7.124;2022-07-06T12:49:37;20.00;90.40
5631;DHT22;2837;50.990;7.124;2022-07-06T12:54:48;20.10;92.40
5631;DHT22;2837;50.990;7.124;2022-07-06T12:57:24;20.10;97.50
5631;DHT22;2837;50.990;7.124;2022-07-06T13:04:59;20.20;90.70
5631;DHT22;2837;50.990;7.124;2022-07-06T13:07:26;20.20;96.50
5631;DHT22;2837;50.990;7.124;2022-07-06T13:09:52;20.20;99.90
5631;DHT22;2837;50.990;7.124;2022-07-06T13:12:18;20.20;95.80
5631;DHT22;2837;50.990;7.124;2022-07-06T13:14:44;20.20;93.20
5631;DHT22;2837;50.990;7.124;2022-07-06T13:17:09;20.20;99.90
5631;DHT22;2837;50.990;7.124;2022-07-06T13:19:35;20.20;93.60
5631;DHT22;2837;50.990;7.124;2022-07-06T13:22:01;20.20;90.50
5631;DHT22;2837;50.990;7.124;2022-07-06T13:24:26;20.20;97.20
5631;DHT22;2837;50.990;7.124;2022-07-06T13:26:54;20.20;98.50
5631;DHT22;2837;50.990;7.124;2022-07-06T13:29:19;20.20;88.20
5631;DHT22;2837;50.990;7.124;2022-07-06T13:31:45;20.20;91.00
5631;DHT22;2837;50.990;7.124;2022-07-06T13:34:10;20.20;94.30
5631;DHT22;2837;50.990;7.124;2022-07-06T13:36:38;20.20;96.40
5631;DHT22;2837;50.990;7.124;2022-07-06T13:39:05;20.20;99.90
5631;DHT22;2837;50.990;7.124;2022-07-06T13:41:31;20.30;99.90
5631;DHT22;2837;50.990;7.124;2022-07-06T13:43:57;20.30;80.20
5631;DHT22;2837;50.990;7.124;2022-07-06T13:46:24;20.30;72.70
5631;DHT22;2837;50.990;7.124;2022-07-06T13:48:49;20.30;71.30
5631;DHT22;2837;50.990;7.124;2022-07-06T13:51:15;20.30;79.30
5631;DHT22;2837;50.990;7.124;2022-07-06T13:53:41;20.30;81.90
5631;DHT22;2837;50.990;7.124;2022-07-06T13:56:06;20.30;93.00
5631;DHT22;2837;50.990;7.124;2022-07-06T13:58:33;20.30;99.90
5631;DHT22;2837;50.990;7.124;2022-07-06T14:00:59;20.30;99.90
5631;DHT22;2837;50.990;7.124;2022-07-06T14:03:24;20.30;93.20
5631;DHT22;2837;50.990;7.124;2022-07-06T14:05:58;20.30;89.20
5631;DHT22;2837;50.990;7.124;2022-07-06T14:08:25;20.30;90.00
5631;DHT22;2837;50.990;7.124;2022-07-06T14:10:51;20.30;86.10
5631;DHT22;2837;50.990;7.124;2022-07-06T14:13:17;20.30;86.00
5631;DHT22;2837;50.990;7.124;2022-07-06T14:15:43;20.40;83.20
5631;DHT22;2837;50.990;7.124;2022-07-06T14:18:09;20.40;80.50
5631;DHT22;2837;50.990;7.124;2022-07-06T14:20:41;20.30;84.10
5631;DHT22;2837;50.990;7.124;2022-07-06T14:23:07;20.30;89.00
5631;DHT22;2837;50.990;7.124;2022-07-06T14:25:33;20.30;88.80
5631;DHT22;2837;50.990;7.124;2022-07-06T14:27:58;20.30;92.90
5631;DHT22;2837;50.990;7.124;2022-07-06T14:30:25;20.30;96.00
5631;DHT22;2837;50.990;7.124;2022-07-06T14:32:50;20.40;99.90
5631;DHT22;2837;50.990;7.124;2022-07-06T14:35:16;20.40;92.90
5631;DHT22;2837;50.990;7.124;2022-07-06T14:37:42;20.40;82.60
5631;DHT22;2837;50.990;7.124;2022-07-06T14:40:08;20.40;93.40
5631;DHT22;2837;50.990;7.124;2022-07-06T14:42:33;20.40;97.60
5631;DHT22;2837;50.990;7.124;2022-07-06T14:44:59;20.40;99.90
5631;DHT22;2837;50.990;7.124;2022-07-06T14:47:25;20.40;99.50
5631;DHT22;2837;50.990;7.124;2022-07-06T14:49:50;20.50;97.40
5631;DHT22;2837;50.990;7.124;2022-07-06T14:52:17;20.50;87.40
5631;DHT22;2837;50.990;7.124;2022-07-06T14:54:43;20.50;82.30
5631;DHT22;2837;50.990;7.124;2022-07-06T14:57:08;20.50;89.30
5631;DHT22;2837;50.990;7.124;2022-07-06T14:59:34;20.50;87.90
5631;DHT22;2837;50.990;7.124;2022-07-06T15:02:00;20.50;91.10
5631;DHT22;2837;50.990;7.124;2022-07-06T15:04:26;20.60;89.00
5631;DHT22;2837;50.990;7.124;2022-07-06T15:06:53;20.50;89.00
5631;DHT22;2837;50.990;7.124;2022-07-06T15:09:19;20.50;93.00
5631;DHT22;2837;50.990;7.124;2022-07-06T15:11:44;20.50;95.90
5631;DHT22;2837;50.990;7.124;2022-07-06T15:14:11;20.50;90.10
5631;DHT22;2837;50.990;7.124;2022-07-06T15:16:37;20.50;93.50
5631;DHT22;2837;50.990;7.124;2022-07-06T15:19:02;20.50;94.60
5631;DHT22;2837;50.990;7.124;2022-07-06T15:21:28;20.50;90.10
5631;DHT22;2837;50.990;7.124;2022-07-06T15:23:54;20.50;95.50
5631;DHT22;2837;50.990;7.124;2022-07-06T15:26:19;20.50;96.90
5631;DHT22;2837;50.990;7.124;2022-07-06T15:28:45;20.50;81.40
5631;DHT22;2837;50.990;7.124;2022-07-06T15:31:10;20.50;81.10
5631;DHT22;2837;50.990;7.124;2022-07-06T15:33:36;20.50;81.80
5631;DHT22;2837;50.990;7.124;2022-07-06T15:36:02;20.50;94.00
5631;DHT22;2837;50.990;7.124;2022-07-06T15:38:27;20.50;91.70
5631;DHT22;2837;50.990;7.124;2022-07-06T15:40:53;20.60;88.20
5631;DHT22;2837;50.990;7.124;2022-07-06T15:43:25;20.60;82.50
5631;DHT22;2837;50.990;7.124;2022-07-06T15:45:58;20.60;80.40
5631;DHT22;2837;50.990;7.124;2022-07-06T15:48:25;20.60;80.50
5631;DHT22;2837;50.990;7.124;2022-07-06T15:50:51;20.60;78.80
5631;DHT22;2837;50.990;7.124;2022-07-06T15:53:16;20.60;75.10
5631;DHT22;2837;50.990;7.124;2022-07-06T15:55:43;20.60;81.50
5631;DHT22;2837;50.990;7.124;2022-07-06T15:58:09;20.60;86.70
5631;DHT22;2837;50.990;7.124;2022-07-06T16:00:34;20.60;90.60
5631;DHT22;2837;50.990;7.124;2022-07-06T16:03:00;20.60;90.30
5631;DHT22;2837;50.990;7.124;2022-07-06T16:05:27;20.60;90.10
5631;DHT22;2837;50.990;7.124;2022-07-06T16:07:53;20.60;93.50
5631;DHT22;2837;50.990;7.124;2022-07-06T16:10:18;20.60;91.00
5631;DHT22;2837;50.990;7.124;2022-07-06T16:12:44;20.60;85.60
5631;DHT22;2837;50.990;7.124;2022-07-06T16:15:10;20.60;91.20
5631;DHT22;2837;50.990;7.124;2022-07-06T16:17:35;20.60;88.70
5631;DHT22;2837;50.990;7.124;2022-07-06T16:20:01;20.60;90.30
5631;DHT22;2837;50.990;7.124;2022-07-06T16:22:27;20.60;99.90
5631;DHT22;2837;50.990;7.124;2022-07-06T16:24:53;20.60;99.90
5631;DHT22;2837;50.990;7.124;2022-07-06T16:27:18;20.60;98.50
5631;DHT22;2837;50.990;7.124;2022-07-06T16:29:44;20.70;86.80
5631;DHT22;2837;50.990;7.124;2022-07-06T16:32:09;20.70;88.50
5631;DHT22;2837;50.990;7.124;2022-07-06T16:34:35;20.70;90.90
5631;DHT22;2837;50.990;7.124;2022-07-06T16:37:01;20.70;95.90
5631;DHT22;2837;50.990;7.124;2022-07-06T16:39:26;20.70;98.10
5631;DHT22;2837;50.990;7.124;2022-07-06T16:41:52;20.70;90.00
5631;DHT22;2837;50.990;7.124;2022-07-06T16:44:18;20.70;86.80
5631;DHT22;2837;50.990;7.124;2022-07-06T16:46:43;20.70;86.50
5631;DHT22;2837;50.990;7.124;2022-07-06T16:49:09;20.70;82.60
5631;DHT22;2837;50.990;7.124;2022-07-06T16:51:35;20.70;88.40
5631;DHT22;2837;50.990;7.124;2022-07-06T16:54:00;20.70;84.80
5631;DHT22;2837;50.990;7.124;2022-07-06T16:56:26;20.70;93.20
5631;DHT22;2837;50.990;7.124;2022-07-06T16:58:51;20.70;99.20
5631;DHT22;2837;50.990;7.124;2022-07-06T17:01:17;20.70;93.20
5631;DHT22;2837;50.990;7.124;2022-07-06T17:03:43;20.70;94.90
5631;DHT22;2837;50.990;7.124;2022-07-06T17:06:08;20.70;89.70
5631;DHT22;2837;50.990;7.124;2022-07-06T17:08:35;20.70;88.40
5631;DHT22;2837;50.990;7.124;2022-07-06T17:11:00;20.70;83.80
5631;DHT22;2837;50.990;7.124;2022-07-06T17:13:26;20.70;90.80
5631;DHT22;2837;50.990;7.124;2022-07-06T17:15:54;20.70;90.90
5631;DHT22;2837;50.990;7.124;2022-07-06T17:18:20;20.70;81.20
5631;DHT22;2837;50.990;7.124;2022-07-06T17:20:45;20.70;78.10
5631;DHT22;2837;50.990;7.124;2022-07-06T17:23:11;20.70;77.90
5631;DHT22;2837;50.990;7.124;2022-07-06T17:25:36;20.70;80.10
5631;DHT22;2837;50.990;7.124;2022-07-06T17:28:02;20.70;81.60
5631;DHT22;2837;50.990;7.124;2022-07-06T17:30:28;20.70;83.60
5631;DHT22;2837;50.990;7.124;2022-07-06T17:32:54;20.70;85.20
5631;DHT22;2837;50.990;7.124;2022-07-06T17:35:20;20.60;82.70
5631;DHT22;2837;50.990;7.124;2022-07-06T17:37:45;20.60;79.30
5631;DHT22;2837;50.990;7.124;2022-07-06T17:40:11;20.60;77.50
5631;DHT22;2837;50.990;7.124;2022-07-06T17:42:37;20.60;81.90
5631;DHT22;2837;50.990;7.124;2022-07-06T17:45:03;20.60;78.20
5631;DHT22;2837;50.990;7.124;2022-07-06T17:47:29;20.60;75.00
5631;DHT22;2837;50.990;7.124;2022-07-06T17:49:55;20.60;79.00
5631;DHT22;2837;50.990;7.124;2022-07-06T17:52:20;20.60;82.80
5631;DHT22;2837;50.990;7.124;2022-07-06T17:54:46;20.60;89.90
5631;DHT22;2837;50.990;7.124;2022-07-06T17:57:12;20.60;90.90
5631;DHT22;2837;50.990;7.124;2022-07-06T17:59:39;20.50;87.10
5631;DHT22;2837;50.990;7.124;2022-07-06T18:02:06;20.50;81.50
5631;DHT22;2837;50.990;7.124;2022-07-06T18:04:32;20.50;82.20
5631;DHT22;2837;50.990;7.124;2022-07-06T18:06:58;20.50;85.80
5631;DHT22;2837;50.990;7.124;2022-07-06T18:09:24;20.50;87.30
5631;DHT22;2837;50.990;7.124;2022-07-06T18:11:49;20.40;88.90
5631;DHT22;2837;50.990;7.124;2022-07-06T18:14:16;20.40;87.50
5631;DHT22;2837;50.990;7.124;2022-07-06T18:16:42;20.40;83.00
5631;DHT22;2837;50.990;7.124;2022-07-06T18:19:08;20.40;83.80
5631;DHT22;2837;50.990;7.124;2022-07-06T18:21:33;20.40;83.90
5631;DHT22;2837;50.990;7.124;2022-07-06T18:23:59;20.40;83.60
5631;DHT22;2837;50.990;7.124;2022-07-06T18:26:25;20.40;85.50
5631;DHT22;2837;50.990;7.124;2022-07-06T18:28:50;20.40;83.90
5631;DHT22;2837;50.990;7.124;2022-07-06T18:31:16;20.40;82.60
5631;DHT22;2837;50.990;7.124;2022-07-06T18:33:42;20.30;82.80
5631;DHT22;2837;50.990;7.124;2022-07-06T18:36:08;20.30;85.60
5631;DHT22;2837;50.990;7.124;2022-07-06T18:38:35;20.30;85.30
5631;DHT22;2837;50.990;7.124;2022-07-06T18:41:01;20.30;83.70
5631;DHT22;2837;50.990;7.124;2022-07-06T18:43:27;20.30;87.80
5631;DHT22;2837;50.990;7.124;2022-07-06T18:45:53;20.30;90.40
5631;DHT22;2837;50.990;7.124;2022-07-06T18:48:19;20.30;90.90
5631;DHT22;2837;50.990;7.124;2022-07-06T18:50:44;20.30;90.80
5631;DHT22;2837;50.990;7.124;2022-07-06T18:53:11;20.30;90.70
5631;DHT22;2837;50.990;7.124;2022-07-06T18:55:41;20.30;90.00
5631;DHT22;2837;50.990;7.124;2022-07-06T18:58:06;20.30;91.50
5631;DHT22;2837;50.990;7.124;2022-07-06T19:00:32;20.20;92.30
5631;DHT22;2837;50.990;7.124;2022-07-06T19:02:57;20.20;92.00
5631;DHT22;2837;50.990;7.124;2022-07-06T19:05:23;20.20;92.70
5631;DHT22;2837;50.990;7.124;2022-07-06T19:07:49;20.20;95.80
5631;DHT22;2837;50.990;7.124;2022-07-06T19:10:15;20.20;96.00
5631;DHT22;2837;50.990;7.124;2022-07-06T19:12:40;20.20;94.00
5631;DHT22;2837;50.990;7.124;2022-07-06T19:15:06;20.20;92.60
5631;DHT22;2837;50.990;7.124;2022-07-06T19:17:32;20.20;94.70
5631;DHT22;2837;50.990;7.124;2022-07-06T19:19:58;20.20;97.60
5631;DHT22;2837;50.990;7.124;2022-07-06T19:22:23;20.20;98.80
5631;DHT22;2837;50.990;7.124;2022-07-06T19:24:49;20.20;98.20
5631;DHT22;2837;50.990;7.124;2022-07-06T19:27:15;20.10;95.80
5631;DHT22;2837;50.990;7.124;2022-07-06T19:29:40;20.10;99.90
5631;DHT22;2837;50.990;7.124;2022-07-06T19:32:06;20.10;99.90
5631;DHT22;2837;50.990;7.124;2022-07-06T19:34:32;20.10;99.90
5631;DHT22;2837;50.990;7.124;2022-07-06T19:36:58;20.10;99.90
5631;DHT22;2837;50.990;7.124;2022-07-06T19:39:24;20.10;99.90
5631;DHT22;2837;50.990;7.124;2022-07-06T19:41:50;20.10;99.90
5631;DHT22;2837;50.990;7.124;2022-07-06T19:44:16;20.10;99.90
5631;DHT22;2837;50.990;7.124;2022-07-06T19:46:42;20.10;99.90
5631;DHT22;2837;50.990;7.124;2022-07-06T19:49:08;20.10;99.90
5631;DHT22;2837;50.990;7.124;2022-07-06T19:51:34;20.10;99.90
5631;DHT22;2837;50.990;7.124;2022-07-06T19:54:00;20.10;99.90
5631;DHT22;2837;50.990;7.124;2022-07-06T19:56:25;20.00;99.90
5631;DHT22;2837;50.990;7.124;2022-07-06T19:58:51;20.00;99.90
5631;DHT22;2837;50.990;7.124;2022-07-06T20:01:17;20.00;99.90
5631;DHT22;2837;50.990;7.124;2022-07-06T20:03:43;20.00;99.90
5631;DHT22;2837;50.990;7.124;2022-07-06T20:06:08;20.00;99.90
5631;DHT22;2837;50.990;7.124;2022-07-06T20:08:34;19.90;99.90
5631;DHT22;2837;50.990;7.124;2022-07-06T20:11:00;20.00;99.90
5631;DHT22;2837;50.990;7.124;2022-07-06T20:13:26;19.90;99.90
5631;DHT22;2837;50.990;7.124;2022-07-06T20:15:51;19.90;99.90
5631;DHT22;2837;50.990;7.124;2022-07-06T20:18:17;19.90;99.90
5631;DHT22;2837;50.990;7.124;2022-07-06T20:20:42;19.90;99.90
5631;DHT22;2837;50.990;7.124;2022-07-06T20:23:08;19.90;99.90
5631;DHT22;2837;50.990;7.124;2022-07-06T20:25:34;19.90;99.90
5631;DHT22;2837;50.990;7.124;2022-07-06T20:27:59;19.80;99.90
5631;DHT22;2837;50.990;7.124;2022-07-06T20:30:25;19.80;99.90
5631;DHT22;2837;50.990;7.124;2022-07-06T20:32:51;19.80;99.90
5631;DHT22;2837;50.990;7.124;2022-07-06T20:35:16;19.80;99.90
5631;DHT22;2837;50.990;7.124;2022-07-06T20:37:42;19.80;99.90
5631;DHT22;2837;50.990;7.124;2022-07-06T20:40:08;19.80;99.90
5631;DHT22;2837;50.990;7.124;2022-07-06T20:42:34;19.80;99.90
5631;DHT22;2837;50.990;7.124;2022-07-06T20:45:00;19.70;99.90
5631;DHT22;2837;50.990;7.124;2022-07-06T20:47:25;19.70;99.90
5631;DHT22;2837;50.990;7.124;2022-07-06T20:49:51;19.70;99.90
5631;DHT22;2837;50.990;7.124;2022-07-06T20:52:16;19.70;99.90
5631;DHT22;2837;50.990;7.124;2022-07-06T20:54:42;19.70;99.90
5631;DHT22;2837;50.990;7.124;2022-07-06T20:57:08;19.70;99.90
5631;DHT22;2837;50.990;7.124;2022-07-06T20:59:34;19.60;99.90
